Time;durP1;ratioP1;P1;durP2;ratioP2;P2;SDS_P1;SDS_P2;PMS_P1;PMS_P2;Temp;Humidity;BMP_temperature;BMP_pressure;BME280_temperature;BME280_humidity;BME280_pressure;Samples;Min_cycle;Max_cycle;Signal;HPM_P1;HPM_P2
2021/05/13 00:00:49;;;;;;;4.65;1.90;;;;;;;21.86;35.15;100988.00;4171433;28;20127;-52
2021/05/13 00:02:50;;;;;;;6.78;2.20;;;;;;;21.84;35.15;100987.44;4152262;28;20029;-53
2021/05/13 00:04:50;;;;;;;4.72;1.67;;;;;;;21.73;34.93;100989.50;4175437;28;20041;-55
2021/05/13 00:06:51;;;;;;;5.68;1.70;;;;;;;21.80;35.20;100995.56;4172272;28;20036;-56
2021/05/13 00:08:56;;;;;;;5.25;1.92;;;;;;;21.72;35.01;100977.56;4170063;28;20037;-55
2021/05/13 00:11:06;;;;;;;3.58;1.48;;;;;;;21.73;35.08;100989.50;4175288;28;20120;-49
2021/05/13 00:13:09;;;;;;;4.65;1.80;;;;;;;21.70;35.13;100988.16;4174510;28;20044;-54
2021/05/13 00:15:13;;;;;;;4.00;1.38;;;;;;;21.66;35.09;100984.31;4173991;28;20186;-55
2021/05/13 00:17:14;;;;;;;4.82;1.90;;;;;;;21.68;34.81;100992.38;4176942;28;20031;-49
2021/05/13 00:19:15;;;;;;;5.35;1.65;;;;;;;21.61;35.11;100986.31;4173680;28;20066;-56
2021/05/13 00:21:16;;;;;;;4.63;1.63;;;;;;;21.57;34.99;100986.06;4179223;28;20475;-49
2021/05/13 00:23:16;;;;;;;5.82;1.88;;;;;;;21.57;35.12;100991.63;4176675;28;20040;-52
2021/05/13 00:25:17;;;;;;;5.53;1.80;;;;;;;21.53;34.93;100985.00;4175021;28;20075;-55
2021/05/13 00:27:17;;;;;;;4.45;2.00;;;;;;;21.51;34.96;100988.06;4177004;28;20037;-52
2021/05/13 00:29:26;;;;;;;5.22;1.55;;;;;;;21.54;34.94;100989.44;4174989;28;20029;-48
2021/05/13 00:31:26;;;;;;;4.38;1.85;;;;;;;21.48;34.77;100993.41;4177280;28;20083;-50
2021/05/13 00:33:26;;;;;;;4.30;2.05;;;;;;;21.45;34.73;100983.66;4175521;28;20757;-55
2021/05/13 00:35:27;;;;;;;5.28;2.35;;;;;;;21.46;34.87;100993.69;4176029;28;20032;-54
2021/05/13 00:37:28;;;;;;;5.78;1.98;;;;;;;21.42;34.57;100992.63;4177297;28;20144;-54
2021/05/13 00:39:28;;;;;;;5.10;1.92;;;;;;;21.40;34.94;100985.69;4176277;28;20040;-50
2021/05/13 00:41:28;;;;;;;3.10;1.50;;;;;;;21.40;34.73;100983.72;4176516;28;20041;-52
2021/05/13 00:43:29;;;;;;;5.43;2.03;;;;;;;21.31;34.59;100977.94;4177424;28;20064;-56
2021/05/13 00:45:30;;;;;;;4.43;1.77;;;;;;;21.26;34.45;100983.56;4175750;28;20399;-53
2021/05/13 00:47:34;;;;;;;6.55;2.03;;;;;;;21.30;34.83;100981.88;4178219;28;20033;-53
2021/05/13 00:49:34;;;;;;;3.55;1.70;;;;;;;21.29;34.49;100993.31;4175234;28;20487;-53
2021/05/13 00:51:35;;;;;;;6.65;2.22;;;;;;;21.27;34.66;100987.16;4174794;28;20029;-50
2021/05/13 00:53:38;;;;;;;4.88;2.13;;;;;;;21.28;34.77;100989.66;4176538;28;20086;-52
2021/05/13 00:55:39;;;;;;;3.47;1.67;;;;;;;21.28;34.46;100988.81;4175534;28;20639;-53
2021/05/13 00:57:42;;;;;;;5.28;2.30;;;;;;;21.20;34.69;100984.72;4177363;28;20041;-53
2021/05/13 00:59:49;;;;;;;4.30;2.03;;;;;;;21.19;34.39;100989.47;4176950;28;20028;-53
2021/05/13 01:01:49;;;;;;;3.88;1.80;;;;;;;21.23;34.54;100983.31;4175299;28;20032;-52
2021/05/13 01:03:50;;;;;;;4.05;2.00;;;;;;;21.15;34.51;100984.78;4176866;28;20030;-51
2021/05/13 01:05:50;;;;;;;4.55;1.90;;;;;;;21.12;34.55;100974.22;4176981;28;20044;-52
2021/05/13 01:07:51;;;;;;;4.22;1.85;;;;;;;21.12;34.43;100977.81;4175438;28;20045;-54
2021/05/13 01:09:51;;;;;;;6.10;1.88;;;;;;;21.14;34.28;100977.53;4175954;28;20060;-54
2021/05/13 01:12:04;;;;;;;6.68;2.20;;;;;;;21.09;34.45;100975.63;4175074;28;20033;-51
2021/05/13 01:14:17;;;;;;;2.85;1.30;;;;;;;21.04;34.17;100967.31;4175812;28;20043;-51
2021/05/13 01:16:44;;;;;;;4.20;1.63;;;;;;;21.06;34.40;100972.59;4174593;28;20037;-51
2021/05/13 01:18:45;;;;;;;3.75;1.80;;;;;;;21.06;34.37;100972.59;4176457;28;20483;-49
2021/05/13 01:20:48;;;;;;;5.32;1.80;;;;;;;21.09;34.18;100970.06;4173070;28;20033;-50
2021/05/13 01:22:48;;;;;;;3.83;1.42;;;;;;;21.01;34.40;100968.72;4172958;28;20124;-52
2021/05/13 01:24:49;;;;;;;5.00;1.40;;;;;;;20.97;34.25;100959.28;4177308;28;20037;-51
2021/05/13 01:26:50;;;;;;;3.42;1.50;;;;;;;20.93;34.11;100961.00;4175111;28;20033;-55
2021/05/13 01:28:50;;;;;;;4.25;2.08;;;;;;;20.82;34.35;100948.28;4173162;28;20042;-57
2021/05/13 01:30:52;;;;;;;5.25;2.45;;;;;;;20.92;34.18;100952.94;4177137;28;20029;-49
2021/05/13 01:32:55;;;;;;;4.43;1.77;;;;;;;20.88;34.38;100952.69;4173453;28;20033;-56
2021/05/13 01:34:55;;;;;;;2.25;1.33;;;;;;;20.87;34.37;100956.59;4174359;28;20037;-55
2021/05/13 01:36:56;;;;;;;4.40;1.80;;;;;;;20.85;34.38;100950.47;4176088;28;20033;-54
2021/05/13 01:38:57;;;;;;;2.97;1.55;;;;;;;20.84;34.04;100949.66;4175737;28;20037;-54
2021/05/13 01:41:00;;;;;;;5.63;1.98;;;;;;;20.81;34.37;100946.63;4175068;28;20037;-51
2021/05/13 01:43:01;;;;;;;5.32;2.00;;;;;;;20.78;34.20;100948.03;4174054;28;20060;-54
2021/05/13 01:45:02;;;;;;;4.43;1.90;;;;;;;20.75;34.05;100951.41;4174935;28;20029;-53
2021/05/13 01:47:02;;;;;;;6.00;2.08;;;;;;;20.73;34.24;100950.03;4175070;28;20048;-56
2021/05/13 01:49:04;;;;;;;4.57;1.67;;;;;;;20.64;34.42;100942.31;4172454;28;20037;-56
2021/05/13 01:51:05;;;;;;;4.57;1.73;;;;;;;20.67;34.24;100940.91;4176149;28;20446;-56
2021/05/13 01:53:07;;;;;;;4.78;1.67;;;;;;;20.63;34.31;100937.84;4175215;28;20079;-52
2021/05/13 01:55:08;;;;;;;5.22;1.70;;;;;;;20.64;34.09;100938.69;4175306;28;20045;-54
2021/05/13 01:57:09;;;;;;;3.25;1.70;;;;;;;20.59;34.17;100936.78;4175535;28;20037;-54
2021/05/13 01:59:10;;;;;;;4.80;1.58;;;;;;;20.62;34.16;100935.34;4173239;28;20036;-49
2021/05/13 02:01:13;;;;;;;3.15;1.52;;;;;;;20.60;34.34;100940.38;4174294;28;20032;-52
2021/05/13 02:03:14;;;;;;;4.10;1.40;;;;;;;20.59;33.99;100934.00;4158506;28;20037;-50
2021/05/13 02:05:16;;;;;;;3.47;1.77;;;;;;;20.58;34.21;100932.31;4173681;28;21099;-51
2021/05/13 02:07:16;;;;;;;2.72;1.40;;;;;;;20.55;34.16;100927.31;4176219;28;20494;-53
2021/05/13 02:09:17;;;;;;;2.63;1.45;;;;;;;20.54;34.07;100924.81;4173439;28;20033;-53
2021/05/13 02:11:17;;;;;;;3.60;1.60;;;;;;;20.51;34.20;100923.44;4174552;28;20045;-54
2021/05/13 02:13:18;;;;;;;3.33;1.58;;;;;;;20.49;34.16;100928.47;4175281;28;20071;-51
2021/05/13 02:15:19;;;;;;;3.38;1.40;;;;;;;20.44;34.12;100925.72;4174318;28;20028;-54
2021/05/13 02:17:19;;;;;;;3.20;1.73;;;;;;;20.44;34.02;100931.28;4175471;28;20071;-51
2021/05/13 02:19:20;;;;;;;2.80;1.88;;;;;;;20.45;34.19;100932.94;4174055;28;20037;-54
2021/05/13 02:21:20;;;;;;;3.28;1.95;;;;;;;20.41;33.89;100934.66;4173051;28;20040;-53
2021/05/13 02:23:21;;;;;;;3.03;1.60;;;;;;;20.41;34.01;100932.69;4176694;28;20040;-52
2021/05/13 02:25:22;;;;;;;3.38;1.73;;;;;;;20.37;33.88;100931.59;4174163;28;20041;-52
2021/05/13 02:27:22;;;;;;;4.35;1.95;;;;;;;20.38;34.15;100926.88;4175608;28;20443;-53
2021/05/13 02:29:23;;;;;;;3.53;1.60;;;;;;;20.30;34.18;100926.34;4172478;28;20518;-50
2021/05/13 02:31:23;;;;;;;5.55;1.40;;;;;;;20.30;34.16;100926.34;4171661;28;20025;-53
2021/05/13 02:33:24;;;;;;;3.15;1.50;;;;;;;20.28;34.07;100923.03;4174308;28;20033;-55
2021/05/13 02:35:24;;;;;;;3.05;1.63;;;;;;;20.26;34.00;100922.47;4175757;28;20029;-53
2021/05/13 02:37:24;;;;;;;2.90;1.48;;;;;;;20.24;34.01;100919.16;4174349;28;20056;-52
2021/05/13 02:39:25;;;;;;;3.05;1.38;;;;;;;20.27;33.94;100921.38;4176280;28;20025;-51
2021/05/13 02:41:27;;;;;;;2.00;1.55;;;;;;;20.23;34.08;100920.28;4174067;28;20041;-48
2021/05/13 02:43:27;;;;;;;2.78;1.30;;;;;;;20.23;33.97;100909.16;4172332;28;20068;-54
2021/05/13 02:45:28;;;;;;;4.68;1.45;;;;;;;20.12;34.01;100904.78;4173993;28;20036;-51
2021/05/13 02:47:28;;;;;;;2.35;1.13;;;;;;;20.21;34.17;100921.69;4170444;28;20053;-55
2021/05/13 02:49:29;;;;;;;3.30;1.60;;;;;;;20.17;34.13;100917.81;4175188;28;20029;-55
2021/05/13 02:51:30;;;;;;;3.05;1.35;;;;;;;20.16;34.17;100913.38;4170125;28;20530;-54
2021/05/13 02:53:30;;;;;;;4.60;1.63;;;;;;;20.09;34.31;100910.91;4174812;28;20411;-51
2021/05/13 02:55:31;;;;;;;3.35;1.40;;;;;;;20.12;34.27;100913.94;4172360;28;20029;-54
2021/05/13 02:57:32;;;;;;;2.97;1.45;;;;;;;20.10;34.12;100921.75;4174198;28;20040;-53
2021/05/13 02:59:43;;;;;;;2.80;1.42;;;;;;;20.03;34.23;100918.44;4175624;28;20037;-53
2021/05/13 03:01:44;;;;;;;5.20;1.50;;;;;;;20.05;34.02;100921.78;4171267;28;20033;-54
2021/05/13 03:03:44;;;;;;;3.85;1.70;;;;;;;19.99;34.27;100905.41;4172939;28;20135;-53
2021/05/13 03:05:44;;;;;;;4.20;1.60;;;;;;;19.99;34.20;100909.03;4175168;28;20037;-53
2021/05/13 03:07:48;;;;;;;4.57;1.60;;;;;;;20.06;34.27;100919.81;4170800;28;20041;-53
2021/05/13 03:09:56;;;;;;;3.65;1.75;;;;;;;20.01;34.31;100920.69;4172939;28;20610;-51
2021/05/13 03:11:56;;;;;;;3.65;1.60;;;;;;;20.01;34.13;100911.53;4156231;28;20139;-52
2021/05/13 03:13:58;;;;;;;2.40;1.20;;;;;;;19.97;34.18;100907.63;4173028;28;20091;-53
2021/05/13 03:15:59;;;;;;;4.78;1.73;;;;;;;19.89;34.28;100912.66;4175062;28;20032;-53
2021/05/13 03:18:00;;;;;;;3.83;1.50;;;;;;;19.96;34.46;100915.16;4171966;28;20574;-50
2021/05/13 03:20:01;;;;;;;3.25;1.88;;;;;;;19.96;34.37;100915.16;4171304;28;20483;-50
2021/05/13 03:22:06;;;;;;;2.22;1.50;;;;;;;19.90;34.15;100914.34;4175441;28;20040;-55
2021/05/13 03:26:13;;;;;;;3.53;1.55;;;;;;;19.85;34.30;100917.13;4175273;28;20037;-53
2021/05/13 03:28:13;;;;;;;3.65;1.27;;;;;;;19.89;34.12;100921.00;4173934;28;20713;-51
2021/05/13 03:30:14;;;;;;;3.88;1.42;;;;;;;19.85;34.37;100922.69;4173871;28;20087;-53
2021/05/13 03:32:15;;;;;;;4.43;1.77;;;;;;;19.76;34.62;100925.19;4174430;28;20033;-53
2021/05/13 03:34:15;;;;;;;2.65;1.23;;;;;;;19.81;34.38;100921.56;4172046;28;20032;-53
2021/05/13 03:36:16;;;;;;;4.07;1.42;;;;;;;19.84;34.16;100922.94;4175351;28;20125;-51
2021/05/13 03:38:17;;;;;;;3.15;1.55;;;;;;;19.83;34.17;100919.31;4173404;28;20407;-52
2021/05/13 03:40:17;;;;;;;3.60;1.30;;;;;;;19.83;34.44;100924.88;4173295;28;20163;-55
2021/05/13 03:42:18;;;;;;;5.07;1.40;;;;;;;19.80;34.29;100922.66;4174796;28;20056;-57
2021/05/13 03:44:18;;;;;;;3.28;1.20;;;;;;;19.81;34.24;100920.75;4170834;28;20025;-54
2021/05/13 03:46:18;;;;;;;5.80;1.58;;;;;;;19.73;34.48;100917.44;4174833;28;20491;-53
2021/05/13 03:48:19;;;;;;;3.08;1.48;;;;;;;19.72;34.53;100910.19;4172864;28;20040;-55
2021/05/13 03:50:19;;;;;;;3.45;1.08;;;;;;;19.61;34.82;100894.69;4171483;28;20041;-53
2021/05/13 03:52:20;;;;;;;3.33;1.60;;;;;;;19.65;34.79;100909.69;4172727;28;20676;-53
2021/05/13 03:54:20;;;;;;;2.53;1.45;;;;;;;19.67;34.10;100904.66;4173468;28;20036;-54
2021/05/13 03:56:21;;;;;;;2.28;1.33;;;;;;;19.71;34.41;100902.16;4172796;28;20541;-53
2021/05/13 03:58:26;;;;;;;2.33;1.10;;;;;;;19.73;34.23;100905.50;4175193;28;20036;-56
2021/05/13 04:00:38;;;;;;;2.75;1.42;;;;;;;19.71;34.30;100896.59;4172231;28;20040;-54
2021/05/13 04:02:40;;;;;;;3.92;1.63;;;;;;;19.64;34.37;100893.31;4172202;28;20086;-54
2021/05/13 04:04:40;;;;;;;3.67;1.45;;;;;;;19.64;34.50;100893.31;4171397;28;20189;-53
2021/05/13 04:06:41;;;;;;;3.00;1.48;;;;;;;19.66;34.24;100891.88;4168920;28;20052;-54
2021/05/13 04:08:42;;;;;;;3.70;1.52;;;;;;;19.61;34.36;100891.91;4171599;28;20498;-54
2021/05/13 04:10:43;;;;;;;3.08;1.20;;;;;;;19.58;34.59;100882.19;4173356;28;20033;-51
2021/05/13 04:12:44;;;;;;;4.65;1.33;;;;;;;19.59;34.34;100883.88;4171653;28;20521;-55
2021/05/13 04:14:44;;;;;;;4.25;1.48;;;;;;;19.52;34.69;100871.41;4174665;28;20033;-53
2021/05/13 04:16:52;;;;;;;4.05;1.52;;;;;;;19.54;34.35;100870.03;4173494;28;20033;-51
2021/05/13 04:18:53;;;;;;;3.67;1.38;;;;;;;19.51;34.47;100867.81;4174829;28;20048;-53
2021/05/13 04:20:53;;;;;;;1.98;1.35;;;;;;;19.52;34.63;100866.66;4173646;28;20037;-53
2021/05/13 04:22:54;;;;;;;3.50;1.30;;;;;;;19.51;34.57;100866.97;4173945;28;20163;-53
2021/05/13 04:24:54;;;;;;;4.43;1.38;;;;;;;19.51;34.49;100872.50;4172091;28;20030;-51
2021/05/13 04:26:54;;;;;;;3.35;1.17;;;;;;;19.42;34.54;100858.41;4173300;28;20395;-57
2021/05/13 04:28:55;;;;;;;2.95;1.33;;;;;;;19.45;34.47;100863.38;4173582;28;20063;-52
2021/05/13 04:30:55;;;;;;;3.15;1.20;;;;;;;19.48;34.41;100865.59;4173854;28;20040;-54
2021/05/13 04:32:56;;;;;;;4.68;1.38;;;;;;;19.45;34.65;100863.38;4172115;28;20491;-55
2021/05/13 04:34:56;;;;;;;3.38;1.50;;;;;;;19.46;34.49;100873.34;4170042;28;20091;-50
2021/05/13 04:36:56;;;;;;;5.07;1.80;;;;;;;19.48;34.36;100867.53;4172590;28;20044;-52
2021/05/13 04:38:57;;;;;;;3.55;1.13;;;;;;;19.25;34.41;100833.75;4173069;28;20033;-55
2021/05/13 04:40:57;;;;;;;2.70;1.25;;;;;;;19.39;34.49;100861.75;4173556;28;20029;-54
2021/05/13 04:42:58;;;;;;;6.47;1.60;;;;;;;19.37;34.72;100863.94;4171542;28;20037;-52
2021/05/13 04:44:58;;;;;;;3.00;1.40;;;;;;;19.40;34.41;100860.59;4173576;28;20033;-54
2021/05/13 04:47:00;;;;;;;2.42;1.20;;;;;;;19.33;34.74;100862.88;4174068;28;20033;-54
2021/05/13 04:51:01;;;;;;;2.67;1.23;;;;;;;19.32;34.59;100852.88;4174461;28;20033;-52
2021/05/13 04:53:08;;;;;;;1.67;0.95;;;;;;;19.37;34.47;100869.50;4171600;28;20060;-56
2021/05/13 04:55:09;;;;;;;2.90;1.20;;;;;;;19.38;34.57;100865.63;4172941;28;20099;-52
2021/05/13 04:57:09;;;;;;;3.35;1.25;;;;;;;19.39;34.63;100865.34;4170150;28;20055;-55
2021/05/13 04:59:10;;;;;;;3.38;1.25;;;;;;;19.46;34.30;100867.81;4172466;28;20041;-51
2021/05/13 05:01:11;;;;;;;4.20;1.15;;;;;;;19.40;34.47;100875.34;4174060;28;20104;-55
2021/05/13 05:03:11;;;;;;;2.58;0.88;;;;;;;19.47;34.67;100874.22;4176583;28;20040;-55
2021/05/13 05:05:12;;;;;;;3.10;0.80;;;;;;;19.49;34.46;100874.75;4175368;28;20248;-52
2021/05/13 05:07:12;;;;;;;2.35;1.25;;;;;;;19.51;34.36;100876.13;4176982;28;20025;-55
2021/05/13 05:09:13;;;;;;;2.47;1.17;;;;;;;19.47;34.66;100868.66;4175553;28;20032;-54
2021/05/13 05:11:16;;;;;;;1.67;1.00;;;;;;;19.46;34.45;100878.91;4174909;28;20029;-52
2021/05/13 05:13:16;;;;;;;3.40;1.10;;;;;;;19.45;34.61;100871.72;4175467;28;20033;-51
2021/05/13 05:15:17;;;;;;;2.78;1.00;;;;;;;19.48;34.39;100871.16;4174284;28;20035;-55
2021/05/13 05:17:17;;;;;;;3.42;1.00;;;;;;;19.52;34.50;100868.63;4177335;28;20065;-55
2021/05/13 05:19:18;;;;;;;2.78;1.27;;;;;;;19.51;34.51;100866.97;4175055;28;20111;-56
2021/05/13 05:21:18;;;;;;;3.95;1.30;;;;;;;19.45;34.34;100868.94;4173316;28;20039;-52
2021/05/13 05:23:19;;;;;;;2.70;1.17;;;;;;;19.48;34.47;100871.16;4176452;28;20048;-53
2021/05/13 05:25:20;;;;;;;2.55;1.25;;;;;;;19.48;34.58;100860.03;4174030;28;20110;-50
2021/05/13 05:27:20;;;;;;;2.17;0.90;;;;;;;19.50;34.50;100863.34;4176761;28;20037;-52
2021/05/13 05:29:21;;;;;;;3.80;0.90;;;;;;;19.49;34.57;100858.91;4171386;28;20053;-53
2021/05/13 05:31:21;;;;;;;4.10;1.33;;;;;;;19.50;34.66;100852.25;4172751;28;20033;-54
2021/05/13 05:33:22;;;;;;;2.45;0.95;;;;;;;19.49;34.63;100849.75;4174646;28;20068;-49
2021/05/13 05:35:23;;;;;;;1.90;1.00;;;;;;;19.51;34.67;100848.38;4173959;28;20025;-53
2021/05/13 05:37:23;;;;;;;2.92;0.75;;;;;;;19.50;34.64;100855.03;4177529;28;20036;-52
2021/05/13 05:39:24;;;;;;;4.05;0.95;;;;;;;19.50;34.95;100846.69;4175939;28;20079;-53
2021/05/13 05:41:25;;;;;;;2.75;1.20;;;;;;;19.55;34.60;100846.66;4175491;28;20192;-50
2021/05/13 05:43:25;;;;;;;3.53;0.90;;;;;;;19.55;34.70;100843.91;4176005;28;20067;-52
2021/05/13 05:45:26;;;;;;;2.00;1.02;;;;;;;19.56;34.77;100851.13;4173577;28;20037;-57
2021/05/13 05:47:26;;;;;;;2.85;1.08;;;;;;;19.56;34.83;100848.34;4174923;28;20540;-52
2021/05/13 05:49:26;;;;;;;2.10;1.13;;;;;;;19.57;34.67;100847.25;4173228;28;20033;-57
2021/05/13 05:51:27;;;;;;;3.88;1.05;;;;;;;19.57;34.93;100843.59;4175143;28;20746;-52
2021/05/13 05:53:27;;;;;;;1.30;1.00;;;;;;;19.59;34.92;100836.66;4176220;28;20033;-53
2021/05/13 05:55:28;;;;;;;2.03;0.80;;;;;;;19.60;34.69;100838.34;4176498;28;20044;-53
2021/05/13 05:57:29;;;;;;;3.85;1.10;;;;;;;19.58;34.74;100837.78;4172967;28;20033;-52
2021/05/13 05:59:29;;;;;;;4.72;1.67;;;;;;;19.62;34.72;100837.22;4175953;28;20060;-51
2021/05/13 06:01:30;;;;;;;2.95;0.90;;;;;;;19.61;34.73;100836.38;4175844;28;20574;-53
2021/05/13 06:03:30;;;;;;;4.43;1.48;;;;;;;19.59;34.97;100836.66;4174973;28;20033;-49
2021/05/13 06:05:31;;;;;;;2.83;1.00;;;;;;;19.66;34.72;100829.97;4173610;28;20041;-52
2021/05/13 06:07:32;;;;;;;2.58;1.00;;;;;;;19.66;34.70;100828.03;4173488;28;20037;-55
2021/05/13 06:09:32;;;;;;;1.63;1.00;;;;;;;19.65;34.63;100828.31;4176600;28;20486;-54
2021/05/13 06:11:33;;;;;;;1.77;1.13;;;;;;;19.68;34.55;100834.13;4172468;28;20029;-56
2021/05/13 06:13:33;;;;;;;2.35;1.02;;;;;;;19.67;34.91;100832.47;4175427;28;20028;-53
2021/05/13 06:15:34;;;;;;;2.35;1.15;;;;;;;19.67;34.66;100834.44;4175389;28;20037;-56
2021/05/13 06:17:35;;;;;;;2.42;1.08;;;;;;;19.60;34.65;100823.59;4173058;28;20484;-52
2021/05/13 06:19:36;;;;;;;4.82;1.20;;;;;;;19.71;34.53;100835.50;4175574;28;20068;-52
2021/05/13 06:21:39;;;;;;;2.78;1.33;;;;;;;19.69;34.88;100835.78;4174128;28;20674;-54
2021/05/13 06:23:39;;;;;;;3.40;1.10;;;;;;;19.68;34.67;100834.13;4175838;28;20041;-56
2021/05/13 06:25:39;;;;;;;2.35;1.10;;;;;;;19.69;34.94;100832.19;4175582;28;20056;-56
2021/05/13 06:27:40;;;;;;;1.42;0.98;;;;;;;19.70;34.62;100829.13;4171243;28;20102;-56
2021/05/13 06:29:40;;;;;;;3.78;0.90;;;;;;;19.72;34.57;100831.63;4176137;28;20029;-57
2021/05/13 06:31:41;;;;;;;2.90;1.17;;;;;;;19.73;34.70;100827.72;4154713;28;20587;-56
2021/05/13 06:33:41;;;;;;;2.05;1.33;;;;;;;19.75;34.81;100828.25;4174729;28;20036;-53
2021/05/13 06:35:42;;;;;;;2.33;1.20;;;;;;;19.74;34.62;100830.22;4175166;28;20760;-57
2021/05/13 06:37:43;;;;;;;3.17;1.20;;;;;;;19.69;34.96;100821.06;4169541;28;20080;-58
2021/05/13 06:39:43;;;;;;;3.90;1.17;;;;;;;19.68;34.56;100814.72;4175293;28;20033;-52
2021/05/13 06:41:44;;;;;;;2.42;1.17;;;;;;;19.77;35.01;100812.13;4171578;28;20035;-54
2021/05/13 06:43:44;;;;;;;2.92;1.25;;;;;;;19.74;34.80;100824.66;4175320;28;20415;-55
2021/05/13 06:45:45;;;;;;;4.78;0.98;;;;;;;19.77;34.98;100824.09;4172803;28;20078;-53
2021/05/13 06:47:45;;;;;;;2.97;1.38;;;;;;;19.79;34.79;100823.81;4172191;28;20268;-48
2021/05/13 06:49:46;;;;;;;2.55;1.30;;;;;;;19.83;35.07;100821.28;4172617;28;20594;-50
2021/05/13 06:51:46;;;;;;;2.75;1.23;;;;;;;19.77;34.75;100812.13;4155870;28;20042;-52
2021/05/13 06:53:48;;;;;;;2.08;1.30;;;;;;;19.87;34.96;100819.63;4171722;28;20041;-53
2021/05/13 06:55:52;;;;;;;3.03;1.27;;;;;;;19.88;34.96;100826.84;4175126;28;20033;-52
2021/05/13 06:57:52;;;;;;;1.85;1.05;;;;;;;19.87;34.96;100814.91;4174680;28;20123;-54
2021/05/13 06:59:53;;;;;;;2.17;1.00;;;;;;;19.88;35.15;100819.34;4174686;28;20503;-54
2021/05/13 07:01:56;;;;;;;1.83;1.00;;;;;;;19.92;35.09;100814.84;4165090;28;20032;-56
2021/05/13 07:03:57;;;;;;;2.85;1.25;;;;;;;19.93;35.03;100810.97;4173325;28;20032;-52
2021/05/13 07:05:57;;;;;;;1.75;0.82;;;;;;;19.94;34.95;100807.09;4170925;28;20545;-55
2021/05/13 07:07:58;;;;;;;1.83;1.00;;;;;;;19.98;34.96;100812.06;4174661;28;20040;-52
2021/05/13 07:09:58;;;;;;;2.13;1.25;;;;;;;19.97;35.03;100810.41;4173996;28;20032;-56
2021/05/13 07:11:59;;;;;;;1.63;1.00;;;;;;;19.98;35.03;100812.06;4168345;28;20483;-57
2021/05/13 07:13:59;;;;;;;3.88;1.10;;;;;;;20.01;35.27;100812.31;4173586;28;20025;-55
2021/05/13 07:16:00;;;;;;;2.10;1.02;;;;;;;20.02;35.05;100807.56;4174049;28;20468;-53
2021/05/13 07:18:00;;;;;;;2.45;1.33;;;;;;;20.02;35.20;100813.13;4176366;28;20025;-50
2021/05/13 07:20:01;;;;;;;4.00;1.10;;;;;;;20.06;34.81;100814.22;4169343;28;20029;-55
2021/05/13 07:22:01;;;;;;;2.33;1.13;;;;;;;20.03;35.21;100803.69;4166278;28;20053;-52
2021/05/13 07:24:03;;;;;;;2.60;0.93;;;;;;;20.04;34.93;100813.69;4174732;28;20515;-51
2021/05/13 07:26:03;;;;;;;2.03;1.00;;;;;;;20.04;34.91;100811.75;4171860;28;20116;-54
2021/05/13 07:28:04;;;;;;;2.30;1.08;;;;;;;20.07;35.12;100815.91;4174617;28;20033;-56
2021/05/13 07:30:05;;;;;;;1.25;0.90;;;;;;;20.04;34.94;100816.47;4172165;28;20039;-51
2021/05/13 07:32:06;;;;;;;2.80;1.20;;;;;;;20.06;35.07;100820.59;4174666;28;20094;-53
2021/05/13 07:34:06;;;;;;;2.05;1.05;;;;;;;20.08;35.26;100820.31;4173272;28;20029;-55
2021/05/13 07:36:07;;;;;;;1.90;1.15;;;;;;;20.09;35.26;100825.59;4172117;28;20033;-55
2021/05/13 07:38:08;;;;;;;3.15;1.45;;;;;;;20.12;35.21;100821.41;4172462;28;20060;-54
2021/05/13 07:40:09;;;;;;;2.22;1.15;;;;;;;20.10;35.36;100816.16;4174397;28;20029;-53
2021/05/13 07:42:09;;;;;;;5.00;1.58;;;;;;;20.06;36.19;100820.59;4171937;28;20041;-54
2021/05/13 07:44:10;;;;;;;4.95;1.30;;;;;;;20.21;36.33;100819.69;4170612;28;20033;-53
2021/05/13 07:46:11;;;;;;;7.45;1.73;;;;;;;20.23;36.40;100823.00;4171562;28;20040;-57
2021/05/13 07:48:12;;;;;;;7.10;1.85;;;;;;;20.25;36.24;100823.56;4172670;28;20718;-56
2021/05/13 07:50:17;;;;;;;3.80;1.45;;;;;;;20.29;36.77;100816.28;4175293;28;20025;-55
2021/05/13 07:52:18;;;;;;;2.10;1.05;;;;;;;20.18;36.69;100795.25;4171421;28;20075;-51
2021/05/13 07:54:19;;;;;;;4.18;1.45;;;;;;;20.33;36.72;100818.47;4170273;28;20574;-56
2021/05/13 07:56:20;;;;;;;12.38;1.65;;;;;;;20.34;36.79;100809.03;4173122;28;20498;-53
2021/05/13 07:58:20;;;;;;;2.97;1.42;;;;;;;20.33;36.76;100807.34;4172538;28;20024;-51
2021/05/13 08:00:21;;;;;;;3.92;1.52;;;;;;;20.41;36.89;100821.47;4156696;28;20048;-55
2021/05/13 08:02:22;;;;;;;2.92;1.30;;;;;;;20.26;36.71;100791.84;4153807;28;20033;-53
2021/05/13 08:04:22;;;;;;;3.55;1.70;;;;;;;20.38;36.77;100804.56;4173181;28;20068;-55
2021/05/13 08:06:23;;;;;;;3.95;1.40;;;;;;;20.45;36.99;100811.44;4175478;28;20049;-57
2021/05/13 08:08:23;;;;;;;6.22;1.60;;;;;;;20.47;36.94;100819.50;4172133;28;20045;-54
2021/05/13 08:10:24;;;;;;;6.60;1.38;;;;;;;20.47;37.14;100809.19;4168859;28;20021;-51
2021/05/13 08:12:24;;;;;;;3.95;1.40;;;;;;;20.45;37.02;100808.66;4169478;28;20041;-57
2021/05/13 08:14:25;;;;;;;3.13;1.10;;;;;;;20.50;36.97;100813.34;4171345;28;20034;-53
2021/05/13 08:16:25;;;;;;;2.50;1.23;;;;;;;20.53;37.02;100810.00;4170634;28;20040;-54
2021/05/13 08:18:26;;;;;;;2.78;1.42;;;;;;;20.55;36.91;100809.69;4172965;28;20055;-52
2021/05/13 08:20:26;;;;;;;5.80;1.38;;;;;;;20.55;36.92;100810.53;4171873;28;20025;-52
2021/05/13 08:22:27;;;;;;;6.90;1.60;;;;;;;20.50;36.88;100796.66;4173963;28;20592;-55
2021/05/13 08:24:27;;;;;;;6.68;1.15;;;;;;;20.57;36.75;100811.09;4168843;28;20548;-57
2021/05/13 08:26:28;;;;;;;8.48;1.73;;;;;;;20.60;36.67;100807.72;4174591;28;20040;-54
2021/05/13 08:28:29;;;;;;;4.32;1.38;;;;;;;20.59;36.54;100811.63;4172442;28;20510;-54
2021/05/13 08:30:29;;;;;;;3.33;1.42;;;;;;;20.61;36.75;100808.56;4174306;28;20045;-51
2021/05/13 08:32:30;;;;;;;2.75;1.35;;;;;;;20.65;36.87;100813.25;4172608;28;20048;-54
2021/05/13 08:34:30;;;;;;;5.65;1.20;;;;;;;20.69;36.65;100809.88;4172722;28;20048;-53
2021/05/13 08:36:31;;;;;;;3.35;1.00;;;;;;;20.65;36.46;100807.69;4172122;28;20546;-52
2021/05/13 08:38:31;;;;;;;5.40;1.58;;;;;;;20.51;37.00;100809.44;4175625;28;20042;-50
2021/05/13 08:40:32;;;;;;;5.20;1.35;;;;;;;20.72;36.75;100814.88;4169779;28;20040;-54
2021/05/13 08:42:33;;;;;;;4.50;1.30;;;;;;;20.74;36.83;100818.16;4177256;28;20565;-63
2021/05/13 08:44:36;;;;;;;8.02;2.00;;;;;;;20.78;37.20;100805.34;4177469;28;20033;-53
2021/05/13 08:46:38;;;;;;;5.70;1.80;;;;;;;20.82;37.05;100804.47;4177402;28;20159;-49
2021/05/13 08:48:38;;;;;;;5.63;1.67;;;;;;;20.82;37.13;100807.25;4176388;28;20095;-49
2021/05/13 08:50:38;;;;;;;8.13;1.95;;;;;;;20.71;37.38;100811.22;4175614;28;20036;-51
2021/05/13 08:52:39;;;;;;;16.02;2.22;;;;;;;20.67;37.93;100822.13;4172964;28;20064;-52
2021/05/13 08:54:55;;;;;;;10.65;1.95;;;;;;;20.87;37.33;100806.38;4176893;28;20028;-51
2021/05/13 08:56:56;;;;;;;7.47;2.00;;;;;;;20.90;37.10;100805.78;4174023;28;20025;-50
2021/05/13 08:59:03;;;;;;;8.05;1.63;;;;;;;20.86;37.42;100803.88;4175317;28;20033;-53
2021/05/13 09:01:06;;;;;;;5.82;1.63;;;;;;;20.79;37.37;100780.03;4173980;28;20025;-49
2021/05/13 09:03:06;;;;;;;4.07;1.52;;;;;;;20.88;37.39;100796.88;4175051;28;20384;-54
2021/05/13 09:05:07;;;;;;;12.45;2.30;;;;;;;20.85;37.27;100791.91;4175813;28;20052;-51
2021/05/13 09:07:22;;;;;;;7.50;1.90;;;;;;;20.97;37.25;100797.91;4177072;28;20032;-52
2021/05/13 09:09:22;;;;;;;4.65;1.50;;;;;;;20.99;37.12;100784.53;4172242;28;20086;-51
2021/05/13 09:11:23;;;;;;;7.28;1.50;;;;;;;20.97;37.28;100791.50;4171064;28;20029;-51
2021/05/13 09:13:30;;;;;;;6.40;1.85;;;;;;;21.01;37.05;100790.63;4176476;28;20040;-56
2021/05/13 09:15:32;;;;;;;5.97;1.90;;;;;;;20.99;37.25;100792.03;4175818;28;20037;-53
2021/05/13 09:17:33;;;;;;;10.85;1.80;;;;;;;21.05;37.18;100792.81;4177592;28;20419;-49
2021/05/13 09:19:34;;;;;;;4.30;1.85;;;;;;;20.94;37.11;100765.09;4169477;28;20566;-53
2021/05/13 09:21:50;;;;;;;6.95;1.85;;;;;;;21.08;36.84;100789.44;4173047;28;20060;-53
2021/05/13 09:23:52;;;;;;;7.28;2.17;;;;;;;21.10;36.77;100789.97;4174013;28;20609;-57
2021/05/13 09:26:08;;;;;;;7.88;2.72;;;;;;;21.14;36.53;100791.88;4175170;28;20025;-52
2021/05/13 09:28:09;;;;;;;5.15;2.03;;;;;;;21.13;36.28;100787.44;4170587;28;20029;-51